sensor_id;sensor_type;location;lat;lon;timestamp;pressure;altitude;pressure_sealevel;temperature;humidity
47785;BME280;35233;55.686;37.848;2023-05-10T00:00:12;100833.88;;;11.66;41.00
47785;BME280;35233;55.686;37.848;2023-05-10T00:02:37;100832.13;;;11.67;40.72
47785;BME280;35233;55.686;37.848;2023-05-10T00:05:04;100828.56;;;11.66;40.95
47785;BME280;35233;55.686;37.848;2023-05-10T00:07:30;100807.53;;;11.57;40.87
47785;BME280;35233;55.686;37.848;2023-05-10T00:09:56;100818.88;;;11.65;40.97
47785;BME280;35233;55.686;37.848;2023-05-10T00:12:21;100825.91;;;11.68;41.33
47785;BME280;35233;55.686;37.848;2023-05-10T00:14:46;100828.66;;;11.62;40.93
47785;BME280;35233;55.686;37.848;2023-05-10T00:17:12;100818.06;;;11.62;40.69
47785;BME280;35233;55.686;37.848;2023-05-10T00:19:37;100825.97;;;11.63;41.14
47785;BME280;35233;55.686;37.848;2023-05-10T00:22:03;100810.22;;;11.54;40.80
47785;BME280;35233;55.686;37.848;2023-05-10T00:24:28;100827.75;;;11.63;40.97
47785;BME280;35233;55.686;37.848;2023-05-10T00:26:54;100810.22;;;11.54;41.52
47785;BME280;35233;55.686;37.848;2023-05-10T00:29:19;100835.69;;;11.63;41.09
47785;BME280;35233;55.686;37.848;2023-05-10T00:31:45;100833.09;;;11.60;41.18
47785;BME280;35233;55.686;37.848;2023-05-10T00:34:10;100828.69;;;11.57;41.53
47785;BME280;35233;55.686;37.848;2023-05-10T00:36:36;100817.34;;;11.49;41.38
47785;BME280;35233;55.686;37.848;2023-05-10T00:39:02;100819.97;;;11.52;41.02
47785;BME280;35233;55.686;37.848;2023-05-10T00:41:29;100833.13;;;11.58;41.07
47785;BME280;35233;55.686;37.848;2023-05-10T00:43:57;100829.56;;;11.57;41.50
47785;BME280;35233;55.686;37.848;2023-05-10T00:46:23;100818.19;;;11.51;41.30
47785;BME280;35233;55.686;37.848;2023-05-10T00:48:49;100829.59;;;11.56;41.29
47785;BME280;35233;55.686;37.848;2023-05-10T00:51:15;100833.13;;;11.56;41.04
47785;BME280;35233;55.686;37.848;2023-05-10T00:53:41;100839.31;;;11.55;41.62
47785;BME280;35233;55.686;37.848;2023-05-10T00:56:06;100831.44;;;11.52;41.11
47785;BME280;35233;55.686;37.848;2023-05-10T00:58:32;100831.38;;;11.54;41.23
47785;BME280;35233;55.686;37.848;2023-05-10T01:00:58;100828.78;;;11.51;41.83
47785;BME280;35233;55.686;37.848;2023-05-10T01:03:24;100819.06;;;11.51;41.41
47785;BME280;35233;55.686;37.848;2023-05-10T01:05:50;100831.38;;;11.55;41.36
47785;BME280;35233;55.686;37.848;2023-05-10T01:08:15;100817.34;;;11.50;41.85
47785;BME280;35233;55.686;37.848;2023-05-10T01:10:42;100817.34;;;11.50;41.30
47785;BME280;35233;55.686;37.848;2023-05-10T01:13:09;100819.97;;;11.52;41.31
47785;BME280;35233;55.686;37.848;2023-05-10T01:15:35;100819.97;;;11.50;41.49
47785;BME280;35233;55.686;37.848;2023-05-10T01:18:01;100817.38;;;11.46;41.78
47785;BME280;35233;55.686;37.848;2023-05-10T01:20:34;100821.72;;;11.51;41.64
47785;BME280;35233;55.686;37.848;2023-05-10T01:23:12;100829.69;;;11.50;41.85
47785;BME280;35233;55.686;37.848;2023-05-10T01:26:14;100827.91;;;11.49;42.01
47785;BME280;35233;55.686;37.848;2023-05-10T01:35:06;100817.34;;;11.49;41.79
47785;BME280;35233;55.686;37.848;2023-05-10T01:40:23;100818.25;;;11.48;41.74
47785;BME280;35233;55.686;37.848;2023-05-10T01:42:54;100820.03;;;11.47;41.38
47785;BME280;35233;55.686;37.848;2023-05-10T01:45:41;100818.28;;;11.45;41.41
47785;BME280;35233;55.686;37.848;2023-05-10T01:48:11;100805.09;;;11.42;41.84
47785;BME280;35233;55.686;37.848;2023-05-10T01:50:43;100820.88;;;11.48;41.25
47785;BME280;35233;55.686;37.848;2023-05-10T01:53:10;100801.63;;;11.38;41.83
47785;BME280;35233;55.686;37.848;2023-05-10T01:55:53;100803.34;;;11.41;41.90
47785;BME280;35233;55.686;37.848;2023-05-10T01:58:23;100822.66;;;11.46;41.50
47785;BME280;35233;55.686;37.848;2023-05-10T02:00:51;100830.59;;;11.46;41.33
47785;BME280;35233;55.686;37.848;2023-05-10T02:03:18;100822.66;;;11.46;41.69
47785;BME280;35233;55.686;37.848;2023-05-10T02:05:46;100817.41;;;11.44;41.36
47785;BME280;35233;55.686;37.848;2023-05-10T02:08:13;100814.78;;;11.44;41.37
47785;BME280;35233;55.686;37.848;2023-05-10T02:10:42;100809.47;;;11.43;41.61
47785;BME280;35233;55.686;37.848;2023-05-10T02:13:09;100811.25;;;11.44;41.41
47785;BME280;35233;55.686;37.848;2023-05-10T02:15:37;100812.13;;;11.44;41.59
47785;BME280;35233;55.686;37.848;2023-05-10T02:18:05;100819.16;;;11.47;41.56
47785;BME280;35233;55.686;37.848;2023-05-10T02:20:31;100806.78;;;11.46;41.31
47785;BME280;35233;55.686;37.848;2023-05-10T02:22:59;100805.97;;;11.44;41.53
47785;BME280;35233;55.686;37.848;2023-05-10T02:25:26;100810.31;;;11.48;41.56
47785;BME280;35233;55.686;37.848;2023-05-10T02:27:55;100806.75;;;11.49;41.79
47785;BME280;35233;55.686;37.848;2023-05-10T02:30:22;100811.22;;;11.47;41.55
47785;BME280;35233;55.686;37.848;2023-05-10T02:32:49;100805.91;;;11.47;41.78
47785;BME280;35233;55.686;37.848;2023-05-10T02:35:16;100806.75;;;11.49;41.41
47785;BME280;35233;55.686;37.848;2023-05-10T02:37:43;100812.03;;;11.49;41.70
47785;BME280;35233;55.686;37.848;2023-05-10T02:40:11;100801.50;;;11.47;41.48
47785;BME280;35233;55.686;37.848;2023-05-10T02:42:38;100797.94;;;11.48;41.59
47785;BME280;35233;55.686;37.848;2023-05-10T02:45:11;100799.72;;;11.49;41.69
47785;BME280;35233;55.686;37.848;2023-05-10T02:47:37;100806.75;;;11.52;41.33
47785;BME280;35233;55.686;37.848;2023-05-10T02:50:03;100795.22;;;11.54;41.43
47785;BME280;35233;55.686;37.848;2023-05-10T02:52:54;100799.66;;;11.52;41.21
47785;BME280;35233;55.686;37.848;2023-05-10T02:55:22;100798.72;;;11.56;41.45
47785;BME280;35233;55.686;37.848;2023-05-10T02:57:52;100794.28;;;11.57;41.30
47785;BME280;35233;55.686;37.848;2023-05-10T03:00:20;100806.66;;;11.58;41.44
47785;BME280;35233;55.686;37.848;2023-05-10T03:02:46;100789.03;;;11.54;41.29
47785;BME280;35233;55.686;37.848;2023-05-10T03:05:12;100801.31;;;11.61;41.13
47785;BME280;35233;55.686;37.848;2023-05-10T03:07:38;100796.03;;;11.60;41.21
47785;BME280;35233;55.686;37.848;2023-05-10T03:10:04;100795.09;;;11.64;41.08
47785;BME280;35233;55.686;37.848;2023-05-10T03:15:42;100799.44;;;11.68;41.02
47785;BME280;35233;55.686;37.848;2023-05-10T03:18:15;100800.31;;;11.70;41.39
47785;BME280;35233;55.686;37.848;2023-05-10T03:20:47;100783.56;;;11.66;41.03
47785;BME280;35233;55.686;37.848;2023-05-10T03:23:21;100796.75;;;11.72;41.46
47785;BME280;35233;55.686;37.848;2023-05-10T03:25:48;100802.00;;;11.75;41.43
47785;BME280;35233;55.686;37.848;2023-05-10T03:28:16;100789.63;;;11.76;40.98
47785;BME280;35233;55.686;37.848;2023-05-10T03:30:43;100791.38;;;11.77;41.18
47785;BME280;35233;55.686;37.848;2023-05-10T03:33:10;100791.34;;;11.78;41.07
47785;BME280;35233;55.686;37.848;2023-05-10T03:35:36;100797.47;;;11.81;41.04
47785;BME280;35233;55.686;37.848;2023-05-10T03:38:01;100782.56;;;11.75;41.27
47785;BME280;35233;55.686;37.848;2023-05-10T03:40:27;100787.75;;;11.84;41.22
47785;BME280;35233;55.686;37.848;2023-05-10T03:45:41;100794.75;;;11.90;40.88
47785;BME280;35233;55.686;37.848;2023-05-10T03:48:07;100794.72;;;11.93;41.13
47785;BME280;35233;55.686;37.848;2023-05-10T03:50:32;100795.53;;;11.95;41.07
47785;BME280;35233;55.686;37.848;2023-05-10T03:52:58;100791.97;;;11.97;40.78
47785;BME280;35233;55.686;37.848;2023-05-10T03:55:23;100800.72;;;12.01;40.48
47785;BME280;35233;55.686;37.848;2023-05-10T03:57:49;100792.72;;;12.04;40.24
47785;BME280;35233;55.686;37.848;2023-05-10T04:00:15;100788.28;;;12.06;40.67
47785;BME280;35233;55.686;37.848;2023-05-10T04:02:40;100792.66;;;12.10;40.19
47785;BME280;35233;55.686;37.848;2023-05-10T04:05:06;100783.81;;;12.11;40.27
47785;BME280;35233;55.686;37.848;2023-05-10T04:07:32;100778.50;;;12.11;39.91
47785;BME280;35233;55.686;37.848;2023-05-10T04:09:57;100789.00;;;12.17;39.95
47785;BME280;35233;55.686;37.848;2023-05-10T04:12:23;100795.97;;;12.23;40.47
47785;BME280;35233;55.686;37.848;2023-05-10T04:14:48;100792.41;;;12.26;39.76
47785;BME280;35233;55.686;37.848;2023-05-10T04:17:14;100782.63;;;12.29;40.09
47785;BME280;35233;55.686;37.848;2023-05-10T04:19:39;100787.88;;;12.32;39.51
47785;BME280;35233;55.686;37.848;2023-05-10T04:22:05;100780.78;;;12.33;40.11
47785;BME280;35233;55.686;37.848;2023-05-10T04:24:30;100786.00;;;12.37;39.45
47785;BME280;35233;55.686;37.848;2023-05-10T04:26:56;100777.97;;;12.42;39.88
47785;BME280;35233;55.686;37.848;2023-05-10T04:29:21;100779.69;;;12.44;39.65
47785;BME280;35233;55.686;37.848;2023-05-10T04:31:47;100769.19;;;12.40;39.34
47785;BME280;35233;55.686;37.848;2023-05-10T04:34:14;100777.84;;;12.50;39.17
47785;BME280;35233;55.686;37.848;2023-05-10T04:36:39;100775.13;;;12.54;39.49
47785;BME280;35233;55.686;37.848;2023-05-10T04:39:05;100778.53;;;12.59;39.75
47785;BME280;35233;55.686;37.848;2023-05-10T04:41:31;100767.84;;;12.64;39.43
47785;BME280;35233;55.686;37.848;2023-05-10T04:43:56;100780.97;;;12.72;39.63
47785;BME280;35233;55.686;37.848;2023-05-10T04:46:22;100784.34;;;12.80;38.93
47785;BME280;35233;55.686;37.848;2023-05-10T04:48:47;100773.72;;;12.80;39.33
47785;BME280;35233;55.686;37.848;2023-05-10T04:51:13;100777.09;;;12.89;39.33
47785;BME280;35233;55.686;37.848;2023-05-10T04:53:39;100776.97;;;12.94;39.08
47785;BME280;35233;55.686;37.848;2023-05-10T04:56:05;100776.03;;;12.98;38.92
47785;BME280;35233;55.686;37.848;2023-05-10T04:58:30;100764.44;;;13.02;39.10
47785;BME280;35233;55.686;37.848;2023-05-10T05:00:56;100778.44;;;13.10;39.13
47785;BME280;35233;55.686;37.848;2023-05-10T05:03:21;100776.63;;;13.12;38.55
47785;BME280;35233;55.686;37.848;2023-05-10T05:05:47;100764.13;;;13.18;38.50
47785;BME280;35233;55.686;37.848;2023-05-10T05:08:13;100760.44;;;13.25;38.45
47785;BME280;35233;55.686;37.848;2023-05-10T05:10:38;100757.75;;;13.28;38.63
47785;BME280;35233;55.686;37.848;2023-05-10T05:13:04;100762.06;;;13.32;38.36
47785;BME280;35233;55.686;37.848;2023-05-10T05:15:29;100759.31;;;13.38;38.14
47785;BME280;35233;55.686;37.848;2023-05-10T05:17:55;100736.38;;;13.34;38.18
47785;BME280;35233;55.686;37.848;2023-05-10T05:20:21;100754.72;;;13.45;38.84
47785;BME280;35233;55.686;37.848;2023-05-10T05:22:46;100744.91;;;13.48;38.57
47785;BME280;35233;55.686;37.848;2023-05-10T05:25:12;100742.97;;;13.56;38.54
47785;BME280;35233;55.686;37.848;2023-05-10T05:27:37;100748.19;;;13.59;38.55
47785;BME280;35233;55.686;37.848;2023-05-10T05:30:03;100737.44;;;13.64;38.21
47785;BME280;35233;55.686;37.848;2023-05-10T05:32:29;100739.06;;;13.71;38.11
47785;BME280;35233;55.686;37.848;2023-05-10T05:34:55;100746.88;;;13.77;38.38
47785;BME280;35233;55.686;37.848;2023-05-10T05:37:21;100736.97;;;13.84;38.78
47785;BME280;35233;55.686;37.848;2023-05-10T05:39:47;100740.31;;;13.92;38.90
47785;BME280;35233;55.686;37.848;2023-05-10T05:42:13;100749.00;;;14.00;38.28
47785;BME280;35233;55.686;37.848;2023-05-10T05:44:40;100740.09;;;14.01;38.40
47785;BME280;35233;55.686;37.848;2023-05-10T05:47:05;100747.88;;;14.09;38.67
47785;BME280;35233;55.686;37.848;2023-05-10T05:49:31;100721.34;;;14.08;38.59
47785;BME280;35233;55.686;37.848;2023-05-10T05:52:00;100728.28;;;14.13;38.33
47785;BME280;35233;55.686;37.848;2023-05-10T05:54:26;100737.84;;;14.20;38.68
47785;BME280;35233;55.686;37.848;2023-05-10T05:56:55;100737.72;;;14.25;38.50
47785;BME280;35233;55.686;37.848;2023-05-10T05:59:22;100732.28;;;14.30;38.18
47785;BME280;35233;55.686;37.848;2023-05-10T06:01:48;100735.72;;;14.35;38.33
47785;BME280;35233;55.686;37.848;2023-05-10T06:04:13;100731.34;;;14.32;38.33
47785;BME280;35233;55.686;37.848;2023-05-10T06:06:39;100733.91;;;14.35;38.60
47785;BME280;35233;55.686;37.848;2023-05-10T06:09:04;100731.00;;;14.46;38.14
47785;BME280;35233;55.686;37.848;2023-05-10T06:11:30;100736.16;;;14.52;38.19
47785;BME280;35233;55.686;37.848;2023-05-10T06:13:57;100740.47;;;14.56;37.91
47785;BME280;35233;55.686;37.848;2023-05-10T06:16:23;100723.56;;;14.59;38.17
47785;BME280;35233;55.686;37.848;2023-05-10T06:18:49;100724.41;;;14.61;38.18
47785;BME280;35233;55.686;37.848;2023-05-10T06:21:14;100728.50;;;14.73;37.98
47785;BME280;35233;55.686;37.848;2023-05-10T06:23:41;100723.09;;;14.76;37.58
47785;BME280;35233;55.686;37.848;2023-05-10T06:26:07;100727.31;;;14.83;37.79
47785;BME280;35233;55.686;37.848;2023-05-10T06:28:32;100724.63;;;14.84;37.99
47785;BME280;35233;55.686;37.848;2023-05-10T06:30:59;100716.66;;;14.84;37.99
47785;BME280;35233;55.686;37.848;2023-05-10T06:33:24;100712.31;;;14.80;37.79
47785;BME280;35233;55.686;37.848;2023-05-10T06:35:50;100720.06;;;14.89;38.11
47785;BME280;35233;55.686;37.848;2023-05-10T06:38:16;100727.94;;;14.92;38.10
47785;BME280;35233;55.686;37.848;2023-05-10T06:40:42;100713.72;;;14.93;37.65
47785;BME280;35233;55.686;37.848;2023-05-10T06:43:08;100711.59;;;15.05;38.06
47785;BME280;35233;55.686;37.848;2023-05-10T06:45:33;100714.09;;;15.11;37.95
47785;BME280;35233;55.686;37.848;2023-05-10T06:47:59;100710.38;;;15.16;37.81
47785;BME280;35233;55.686;37.848;2023-05-10T06:50:25;100689.31;;;15.09;37.95
47785;BME280;35233;55.686;37.848;2023-05-10T06:52:50;100711.81;;;15.27;37.49
47785;BME280;35233;55.686;37.848;2023-05-10T06:55:16;100713.31;;;15.35;37.83
47785;BME280;35233;55.686;37.848;2023-05-10T06:57:41;100702.75;;;15.34;37.64
47785;BME280;35233;55.686;37.848;2023-05-10T07:00:07;100694.00;;;15.29;37.38
47785;BME280;35233;55.686;37.848;2023-05-10T07:02:35;100705.31;;;15.37;37.72
47785;BME280;35233;55.686;37.848;2023-05-10T07:05:00;100706.91;;;15.43;37.31
47785;BME280;35233;55.686;37.848;2023-05-10T07:07:26;100707.53;;;15.51;37.56
47785;BME280;35233;55.686;37.848;2023-05-10T07:09:51;100695.94;;;15.53;37.51
47785;BME280;35233;55.686;37.848;2023-05-10T07:12:17;100709.06;;;15.58;37.21
47785;BME280;35233;55.686;37.848;2023-05-10T07:14:43;100695.44;;;15.67;37.09
47785;BME280;35233;55.686;37.848;2023-05-10T07:17:08;100700.72;;;15.70;37.21
47785;BME280;35233;55.686;37.848;2023-05-10T07:19:34;100704.00;;;15.78;37.22
47785;BME280;35233;55.686;37.848;2023-05-10T07:21:59;100704.72;;;15.83;37.15
47785;BME280;35233;55.686;37.848;2023-05-10T07:24:25;100698.38;;;15.88;37.11
47785;BME280;35233;55.686;37.848;2023-05-10T07:26:50;100694.69;;;15.92;37.12
47785;BME280;35233;55.686;37.848;2023-05-10T07:29:16;100681.50;;;15.87;37.41
47785;BME280;35233;55.686;37.848;2023-05-10T07:31:41;100681.47;;;15.89;37.26
47785;BME280;35233;55.686;37.848;2023-05-10T07:34:08;100692.03;;;15.92;37.25
47785;BME280;35233;55.686;37.848;2023-05-10T07:36:34;100686.53;;;15.96;37.18
47785;BME280;35233;55.686;37.848;2023-05-10T07:39:00;100689.19;;;15.96;37.16
47785;BME280;35233;55.686;37.848;2023-05-10T07:41:26;100683.75;;;15.99;37.24
47785;BME280;35233;55.686;37.848;2023-05-10T07:43:51;100689.09;;;15.99;37.34
47785;BME280;35233;55.686;37.848;2023-05-10T07:46:17;100684.69;;;15.98;36.96
47785;BME280;35233;55.686;37.848;2023-05-10T07:48:44;100688.94;;;16.04;37.20
47785;BME280;35233;55.686;37.848;2023-05-10T07:51:10;100683.81;;;15.98;37.28
47785;BME280;35233;55.686;37.848;2023-05-10T07:53:36;100678.69;;;15.92;37.67
47785;BME280;35233;55.686;37.848;2023-05-10T07:58:48;100673.50;;;15.87;37.49
47785;BME280;35233;55.686;37.848;2023-05-10T08:01:14;100664.03;;;15.78;37.27
47785;BME280;35233;55.686;37.848;2023-05-10T08:03:39;100671.03;;;15.82;38.03
47785;BME280;35233;55.686;37.848;2023-05-10T08:06:05;100672.97;;;15.77;38.00
47785;BME280;35233;55.686;37.848;2023-05-10T08:08:31;100666.09;;;15.70;38.08
47785;BME280;35233;55.686;37.848;2023-05-10T08:10:56;100666.25;;;15.64;38.24
47785;BME280;35233;55.686;37.848;2023-05-10T08:13:22;100654.19;;;15.54;37.83
47785;BME280;35233;55.686;37.848;2023-05-10T08:15:47;100669.31;;;15.52;38.24
47785;BME280;35233;55.686;37.848;2023-05-10T08:18:13;100655.47;;;15.40;38.62
47785;BME280;35233;55.686;37.848;2023-05-10T08:20:38;100649.31;;;15.38;38.63
47785;BME280;35233;55.686;37.848;2023-05-10T08:23:04;100652.88;;;15.39;38.48
47785;BME280;35233;55.686;37.848;2023-05-10T08:25:31;100651.88;;;15.42;38.50
47785;BME280;35233;55.686;37.848;2023-05-10T08:27:56;100653.69;;;15.41;38.80
47785;BME280;35233;55.686;37.848;2023-05-10T08:30:22;100646.66;;;15.38;38.85
47785;BME280;35233;55.686;37.848;2023-05-10T08:32:47;100640.47;;;15.38;38.70
47785;BME280;35233;55.686;37.848;2023-05-10T08:35:13;100636.94;;;15.37;38.78
47785;BME280;35233;55.686;37.848;2023-05-10T08:37:38;100648.53;;;15.36;38.87
47785;BME280;35233;55.686;37.848;2023-05-10T08:40:04;100651.19;;;15.36;38.73
47785;BME280;35233;55.686;37.848;2023-05-10T08:42:30;100647.56;;;15.39;38.71
47785;BME280;35233;55.686;37.848;2023-05-10T08:45:00;100634.28;;;15.37;38.44
47785;BME280;35233;55.686;37.848;2023-05-10T08:47:27;100641.09;;;15.46;38.70
47785;BME280;35233;55.686;37.848;2023-05-10T08:49:53;100637.38;;;15.52;38.23
47785;BME280;35233;55.686;37.848;2023-05-10T08:52:20;100621.34;;;15.53;38.33
47785;BME280;35233;55.686;37.848;2023-05-10T08:54:47;100627.22;;;15.63;38.46
47785;BME280;35233;55.686;37.848;2023-05-10T08:57:13;100622.66;;;15.68;38.14
47785;BME280;35233;55.686;37.848;2023-05-10T08:59:39;100621.72;;;15.69;38.24
47785;BME280;35233;55.686;37.848;2023-05-10T09:02:05;100624.28;;;15.72;38.12
47785;BME280;35233;55.686;37.848;2023-05-10T09:04:31;100618.28;;;15.66;38.14
47785;BME280;35233;55.686;37.848;2023-05-10T09:06:57;100621.84;;;15.65;38.43
47785;BME280;35233;55.686;37.848;2023-05-10T09:09:23;100604.09;;;15.65;38.05
47785;BME280;35233;55.686;37.848;2023-05-10T09:11:51;100614.38;;;15.76;38.03
47785;BME280;35233;55.686;37.848;2023-05-10T09:14:18;100608.84;;;15.82;37.80
47785;BME280;35233;55.686;37.848;2023-05-10T09:16:44;100614.53;;;15.98;37.90
47785;BME280;35233;55.686;37.848;2023-05-10T09:19:10;100608.03;;;16.05;37.54
47785;BME280;35233;55.686;37.848;2023-05-10T09:21:36;100597.88;;;16.16;37.31
47785;BME280;35233;55.686;37.848;2023-05-10T09:24:05;100591.66;;;16.16;37.45
47785;BME280;35233;55.686;37.848;2023-05-10T09:26:31;100608.25;;;16.24;37.33
47785;BME280;35233;55.686;37.848;2023-05-10T09:28:58;100591.53;;;16.20;37.53
47785;BME280;35233;55.686;37.848;2023-05-10T09:31:24;100601.97;;;16.26;37.27
47785;BME280;35233;55.686;37.848;2023-05-10T09:33:51;100597.53;;;16.25;37.29
47785;BME280;35233;55.686;37.848;2023-05-10T09:36:17;100594.81;;;16.27;37.63
47785;BME280;35233;55.686;37.848;2023-05-10T09:38:51;100588.63;;;16.26;37.41
47785;BME280;35233;55.686;37.848;2023-05-10T09:41:21;100585.84;;;16.29;37.29
47785;BME280;35233;55.686;37.848;2023-05-10T09:43:48;100584.63;;;16.38;37.36
47785;BME280;35233;55.686;37.848;2023-05-10T09:46:14;100573.72;;;16.44;37.45
47785;BME280;35233;55.686;37.848;2023-05-10T09:48:42;100581.34;;;16.55;37.26
47785;BME280;35233;55.686;37.848;2023-05-10T09:51:08;100574.69;;;16.65;37.14
47785;BME280;35233;55.686;37.848;2023-05-10T09:53:33;100576.44;;;16.66;36.92
47785;BME280;35233;55.686;37.848;2023-05-10T09:55:59;100573.03;;;16.63;37.00
47785;BME280;35233;55.686;37.848;2023-05-10T09:58:25;100566.88;;;16.61;36.84
47785;BME280;35233;55.686;37.848;2023-05-10T10:00:50;100570.44;;;16.61;36.99
47785;BME280;35233;55.686;37.848;2023-05-10T10:03:19;100566.75;;;16.64;37.14
47785;BME280;35233;55.686;37.848;2023-05-10T10:05:46;100561.41;;;16.64;36.86
47785;BME280;35233;55.686;37.848;2023-05-10T10:08:12;100556.97;;;16.64;36.79
47785;BME280;35233;55.686;37.848;2023-05-10T10:10:39;100547.66;;;16.52;36.98
47785;BME280;35233;55.686;37.848;2023-05-10T10:13:10;100549.41;;;16.52;37.30
47785;BME280;35233;55.686;37.848;2023-05-10T10:15:35;100550.31;;;16.52;37.13
47785;BME280;35233;55.686;37.848;2023-05-10T10:18:01;100548.25;;;16.59;37.27
47785;BME280;35233;55.686;37.848;2023-05-10T10:20:29;100551.38;;;16.70;37.13
47785;BME280;35233;55.686;37.848;2023-05-10T10:22:55;100538.16;;;16.67;37.29
47785;BME280;35233;55.686;37.848;2023-05-10T10:25:21;100539.03;;;16.68;36.85
47785;BME280;35233;55.686;37.848;2023-05-10T10:36:00;100533.19;;;17.04;36.23
47785;BME280;35233;55.686;37.848;2023-05-10T10:38:36;100526.66;;;17.11;36.87
47785;BME280;35233;55.686;37.848;2023-05-10T10:41:12;100525.00;;;17.08;36.30
47785;BME280;35233;55.686;37.848;2023-05-10T10:49:24;100522.44;;;17.05;36.45
47785;BME280;35233;55.686;37.848;2023-05-10T10:52:15;100522.78;;;17.18;36.22
47785;BME280;35233;55.686;37.848;2023-05-10T10:54:53;100519.41;;;17.14;36.47
47785;BME280;35233;55.686;37.848;2023-05-10T10:57:22;100510.78;;;17.08;36.95
47785;BME280;35233;55.686;37.848;2023-05-10T10:59:48;100516.13;;;17.08;36.55
47785;BME280;35233;55.686;37.848;2023-05-10T11:02:33;100515.09;;;17.10;36.60
47785;BME280;35233;55.686;37.848;2023-05-10T11:05:23;100515.91;;;17.12;36.74
47785;BME280;35233;55.686;37.848;2023-05-10T11:07:59;100508.28;;;17.03;36.54
47785;BME280;35233;55.686;37.848;2023-05-10T11:10:26;100517.13;;;17.05;36.77
47785;BME280;35233;55.686;37.848;2023-05-10T11:13:03;100502.81;;;17.06;36.58
47785;BME280;35233;55.686;37.848;2023-05-10T11:15:31;100503.50;;;17.11;36.91
47785;BME280;35233;55.686;37.848;2023-05-10T11:17:57;100498.16;;;17.11;36.68
47785;BME280;35233;55.686;37.848;2023-05-10T11:20:23;100504.91;;;17.20;37.00
47785;BME280;35233;55.686;37.848;2023-05-10T11:22:58;100505.47;;;17.28;36.42
47785;BME280;35233;55.686;37.848;2023-05-10T11:25:27;100491.22;;;17.28;36.63
47785;BME280;35233;55.686;37.848;2023-05-10T11:27:53;100495.31;;;17.36;36.67
47785;BME280;35233;55.686;37.848;2023-05-10T11:30:19;100481.31;;;17.31;36.81
47785;BME280;35233;55.686;37.848;2023-05-10T11:32:45;100497.25;;;17.33;36.80
47785;BME280;35233;55.686;37.848;2023-05-10T11:35:11;100492.59;;;17.38;36.58
47785;BME280;35233;55.686;37.848;2023-05-10T11:37:38;100488.97;;;17.39;36.57
47785;BME280;35233;55.686;37.848;2023-05-10T11:40:09;100488.84;;;17.42;36.32
47785;BME280;35233;55.686;37.848;2023-05-10T11:42:38;100481.59;;;17.46;36.60
47785;BME280;35233;55.686;37.848;2023-05-10T11:45:04;100476.38;;;17.42;36.63
47785;BME280;35233;55.686;37.848;2023-05-10T11:47:30;100475.28;;;17.47;36.53
47785;BME280;35233;55.686;37.848;2023-05-10T11:49:56;100476.09;;;17.49;36.61
47785;BME280;35233;55.686;37.848;2023-05-10T11:52:23;100469.09;;;17.46;36.48
47785;BME280;35233;55.686;37.848;2023-05-10T11:54:54;100471.09;;;17.41;36.56
47785;BME280;35233;55.686;37.848;2023-05-10T11:57:25;100470.28;;;17.39;37.20
47785;BME280;35233;55.686;37.848;2023-05-10T11:59:53;100468.59;;;17.36;36.53
47785;BME280;35233;55.686;37.848;2023-05-10T12:02:20;100462.75;;;17.28;36.94
47785;BME280;35233;55.686;37.848;2023-05-10T12:04:46;100451.53;;;17.20;36.71
47785;BME280;35233;55.686;37.848;2023-05-10T12:07:12;100459.00;;;17.32;37.03
47785;BME280;35233;55.686;37.848;2023-05-10T12:10:02;100461.41;;;17.38;37.34
47785;BME280;35233;55.686;37.848;2023-05-10T12:12:27;100452.53;;;17.38;36.79
47785;BME280;35233;55.686;37.848;2023-05-10T12:15:00;100444.50;;;17.38;36.79
47785;BME280;35233;55.686;37.848;2023-05-10T12:17:28;100448.72;;;17.43;36.81
47785;BME280;35233;55.686;37.848;2023-05-10T12:19:59;100452.84;;;17.51;37.08
47785;BME280;35233;55.686;37.848;2023-05-10T12:22:24;100446.59;;;17.52;37.10
47785;BME280;35233;55.686;37.848;2023-05-10T12:24:50;100455.31;;;17.55;36.46
47785;BME280;35233;55.686;37.848;2023-05-10T12:27:15;100429.56;;;17.54;36.68
47785;BME280;35233;55.686;37.848;2023-05-10T12:29:41;100447.03;;;17.61;36.62
47785;BME280;35233;55.686;37.848;2023-05-10T12:32:09;100443.41;;;17.62;36.35
47785;BME280;35233;55.686;37.848;2023-05-10T12:34:35;100439.00;;;17.61;36.97
47785;BME280;35233;55.686;37.848;2023-05-10T12:37:04;100441.53;;;17.64;36.83
47785;BME280;35233;55.686;37.848;2023-05-10T12:39:59;100444.50;;;17.58;36.48
47785;BME280;35233;55.686;37.848;2023-05-10T12:42:24;100435.13;;;17.48;37.14
47785;BME280;35233;55.686;37.848;2023-05-10T12:44:55;100439.56;;;17.49;36.77
47785;BME280;35233;55.686;37.848;2023-05-10T12:47:21;100442.38;;;17.46;36.93
47785;BME280;35233;55.686;37.848;2023-05-10T12:49:46;100436.16;;;17.46;37.05
47785;BME280;35233;55.686;37.848;2023-05-10T12:52:12;100438.22;;;17.39;37.35
47785;BME280;35233;55.686;37.848;2023-05-10T12:54:37;100439.16;;;17.38;37.55
47785;BME280;35233;55.686;37.848;2023-05-10T12:57:03;100432.28;;;17.32;37.50
47785;BME280;35233;55.686;37.848;2023-05-10T12:59:28;100437.72;;;17.31;37.98
47785;BME280;35233;55.686;37.848;2023-05-10T13:01:53;100436.81;;;17.30;37.41
47785;BME280;35233;55.686;37.848;2023-05-10T13:04:19;100426.13;;;17.30;37.78
47785;BME280;35233;55.686;37.848;2023-05-10T13:06:45;100429.69;;;17.31;37.29
47785;BME280;35233;55.686;37.848;2023-05-10T13:09:11;100430.69;;;17.28;37.82
47785;BME280;35233;55.686;37.848;2023-05-10T13:11:36;100433.38;;;17.28;37.50